createdAt,value
2023-04-17T00:00:58.122Z,100.00
2023-04-17T00:03:26.037Z,100.00
2023-04-17T00:05:54.160Z,100.00
2023-04-17T00:08:21.974Z,100.00
2023-04-17T00:10:57.075Z,100.00
2023-04-17T00:13:33.601Z,100.00
2023-04-17T00:16:01.486Z,100.00
2023-04-17T00:18:29.468Z,100.00
2023-04-17T00:20:57.315Z,100.00
2023-04-17T00:23:26.729Z,100.00
2023-04-17T00:25:54.452Z,100.00
2023-04-17T00:28:22.196Z,100.00
2023-04-17T00:30:51.352Z,100.00
2023-04-17T00:33:19.350Z,100.00
2023-04-17T00:35:47.142Z,100.00
2023-04-17T00:38:15.759Z,100.00
2023-04-17T00:40:45.344Z,100.00
2023-04-17T00:43:13.170Z,100.00
2023-04-17T00:45:42.445Z,100.00
2023-04-17T00:48:13.250Z,100.00
2023-04-17T00:50:41.187Z,100.00
2023-04-17T00:53:09.079Z,100.00
2023-04-17T00:55:39.117Z,100.00
2023-04-17T00:58:07.223Z,100.00
2023-04-17T01:00:35.780Z,100.00
2023-04-17T01:03:03.912Z,100.00
2023-04-17T01:05:35.490Z,100.00
2023-04-17T01:08:03.413Z,100.00
2023-04-17T01:10:31.204Z,100.00
2023-04-17T01:13:03.194Z,100.00
2023-04-17T01:15:31.139Z,100.00
2023-04-17T01:17:59.089Z,100.00
2023-04-17T01:20:31.158Z,100.00
2023-04-17T01:23:01.119Z,100.00
2023-04-17T01:25:30.459Z,100.00
2023-04-17T01:27:58.249Z,100.00
2023-04-17T01:30:26.212Z,100.00
2023-04-17T01:32:55.229Z,100.00
2023-04-17T01:35:23.272Z,100.00
2023-04-17T01:37:51.166Z,100.00
2023-04-17T01:40:19.266Z,100.00
2023-04-17T01:42:48.389Z,100.00
2023-04-17T01:45:16.205Z,100.00
2023-04-17T01:47:44.044Z,100.00
2023-04-17T01:50:13.295Z,100.00
2023-04-17T01:52:41.135Z,100.00
2023-04-17T01:55:09.523Z,100.00
2023-04-17T01:57:37.355Z,100.00
2023-04-17T02:00:09.288Z,100.00
2023-04-17T02:02:37.141Z,100.00
2023-04-17T02:05:05.375Z,100.00
2023-04-17T02:07:33.131Z,100.00
2023-04-17T02:10:00.912Z,100.00
2023-04-17T02:12:28.688Z,100.00
2023-04-17T02:15:00.946Z,100.00
2023-04-17T02:17:30.204Z,100.00
2023-04-17T02:19:57.973Z,100.00
2023-04-17T02:22:25.737Z,100.00
2023-04-17T02:24:53.569Z,100.00
2023-04-17T02:27:22.059Z,100.00
2023-04-17T02:29:49.815Z,100.00
2023-04-17T02:32:18.149Z,100.00
2023-04-17T02:34:47.294Z,100.00
2023-04-17T02:37:15.040Z,100.00
2023-04-17T02:39:42.868Z,100.00
2023-04-17T02:42:12.941Z,100.00
2023-04-17T02:44:40.864Z,100.00
2023-04-17T02:47:08.674Z,100.00
2023-04-17T02:49:36.424Z,100.00
2023-04-17T02:52:06.061Z,100.00
2023-04-17T02:54:33.886Z,100.00
2023-04-17T02:57:01.785Z,100.00
2023-04-17T02:59:29.536Z,100.00
2023-04-17T03:01:59.806Z,100.00
2023-04-17T03:04:28.622Z,100.00
2023-04-17T03:06:56.449Z,100.00
2023-04-17T03:09:26.124Z,100.00
2023-04-17T03:11:53.902Z,100.00
2023-04-17T03:14:21.679Z,100.00
2023-04-17T03:16:49.518Z,100.00
2023-04-17T03:19:17.313Z,100.00
2023-04-17T03:21:45.114Z,100.00
2023-04-17T03:24:12.915Z,100.00
2023-04-17T03:26:41.989Z,100.00
2023-04-17T03:29:09.854Z,100.00
2023-04-17T03:31:37.893Z,100.00
2023-04-17T03:34:05.941Z,100.00
2023-04-17T03:36:33.672Z,100.00
2023-04-17T03:39:01.454Z,100.00
2023-04-17T03:41:29.213Z,100.00
2023-04-17T03:43:58.322Z,100.00
2023-04-17T03:46:26.281Z,100.00
2023-04-17T03:48:54.080Z,100.00
2023-04-17T03:51:21.849Z,100.00
2023-04-17T03:53:49.692Z,100.00
2023-04-17T03:56:17.472Z,100.00
2023-04-17T03:58:45.279Z,100.00
2023-04-17T04:01:14.707Z,100.00
2023-04-17T04:03:43.045Z,100.00
2023-04-17T04:06:11.153Z,100.00
2023-04-17T04:08:38.937Z,100.00
2023-04-17T04:11:06.823Z,100.00
2023-04-17T04:13:34.672Z,100.00
2023-04-17T04:16:02.545Z,100.00
2023-04-17T04:18:31.647Z,100.00
2023-04-17T04:20:59.380Z,100.00
2023-04-17T04:23:28.134Z,100.00
2023-04-17T04:25:57.056Z,100.00
2023-04-17T04:28:28.117Z,100.00
2023-04-17T04:30:58.735Z,100.00
2023-04-17T04:33:27.705Z,100.00
2023-04-17T04:36:01.024Z,100.00
2023-04-17T04:38:31.297Z,100.00
2023-04-17T04:41:06.090Z,100.00
2023-04-17T04:43:34.924Z,100.00
2023-04-17T04:46:03.965Z,100.00
2023-04-17T04:48:31.698Z,100.00
2023-04-17T04:51:01.206Z,100.00
2023-04-17T04:53:29.336Z,100.00
2023-04-17T04:55:57.127Z,100.00
2023-04-17T04:58:24.979Z,100.00
2023-04-17T05:00:52.920Z,100.00
2023-04-17T05:03:22.482Z,100.00
2023-04-17T05:05:51.355Z,100.00
2023-04-17T05:08:21.394Z,100.00
2023-04-17T05:10:49.285Z,100.00
2023-04-17T05:13:17.131Z,100.00
2023-04-17T05:15:44.891Z,100.00
2023-04-17T05:18:12.739Z,100.00
2023-04-17T05:20:40.674Z,100.00
2023-04-17T05:23:08.437Z,100.00
2023-04-17T05:25:37.540Z,100.00
2023-04-17T05:28:05.521Z,100.00
2023-04-17T05:30:33.756Z,100.00
2023-04-17T05:33:01.963Z,100.00
2023-04-17T05:35:29.995Z,100.00
2023-04-17T05:37:57.775Z,100.00
2023-04-17T05:40:25.808Z,100.00
2023-04-17T05:42:54.963Z,100.00
2023-04-17T05:45:24.949Z,100.00
2023-04-17T05:47:53.505Z,100.00
2023-04-17T05:50:21.495Z,100.00
2023-04-17T05:52:49.251Z,100.00
2023-04-17T05:55:17.034Z,100.00
2023-04-17T05:57:44.816Z,100.00
2023-04-17T06:00:15.282Z,100.00
2023-04-17T06:02:43.836Z,100.00
2023-04-17T06:05:11.943Z,100.00
2023-04-17T06:07:40.425Z,100.00
2023-04-17T06:10:09.770Z,100.00
2023-04-17T06:12:40.525Z,100.00
2023-04-17T06:15:10.074Z,100.00
2023-04-17T06:17:40.022Z,100.00
2023-04-17T06:20:10.503Z,100.00
2023-04-17T06:22:38.462Z,100.00
2023-04-17T06:25:07.263Z,100.00
2023-04-17T06:27:36.798Z,100.00
2023-04-17T06:30:06.476Z,100.00
2023-04-17T06:32:34.507Z,100.00
2023-04-17T06:35:03.744Z,100.00
2023-04-17T06:37:31.481Z,100.00
2023-04-17T06:39:59.221Z,100.00
2023-04-17T06:42:28.099Z,100.00
2023-04-17T06:44:56.258Z,100.00
2023-04-17T06:47:24.049Z,100.00
2023-04-17T06:49:51.905Z,100.00
2023-04-17T06:52:22.151Z,100.00
2023-04-17T06:54:49.905Z,100.00
2023-04-17T06:57:17.706Z,100.00
2023-04-17T06:59:45.646Z,100.00
2023-04-17T07:02:13.529Z,100.00
2023-04-17T07:04:41.941Z,100.00
2023-04-17T07:07:09.763Z,100.00
2023-04-17T07:09:39.062Z,100.00
2023-04-17T07:12:06.952Z,100.00
2023-04-17T07:14:35.406Z,100.00
2023-04-17T07:17:04.317Z,100.00
2023-04-17T07:19:32.127Z,100.00
2023-04-17T07:21:59.881Z,100.00
2023-04-17T07:24:27.632Z,100.00
2023-04-17T07:26:57.109Z,100.00
2023-04-17T07:29:24.959Z,100.00
2023-04-17T07:31:52.831Z,100.00
2023-04-17T07:34:21.809Z,100.00
2023-04-17T07:36:50.280Z,100.00
2023-04-17T07:39:18.032Z,100.00
2023-04-17T07:41:46.037Z,100.00
2023-04-17T07:44:15.210Z,100.00
2023-04-17T07:46:43.221Z,100.00
2023-04-17T07:49:12.265Z,100.00
2023-04-17T07:51:41.297Z,100.00
2023-04-17T07:54:09.184Z,100.00
2023-04-17T07:56:36.969Z,100.00
2023-04-17T07:59:04.812Z,100.00
2023-04-17T08:01:34.088Z,100.00
2023-04-17T08:04:02.489Z,100.00
2023-04-17T08:06:30.729Z,100.00
2023-04-17T08:08:59.867Z,100.00
2023-04-17T08:11:27.742Z,100.00
2023-04-17T08:13:56.132Z,100.00
2023-04-17T08:16:24.006Z,100.00
2023-04-17T08:18:53.275Z,100.00
2023-04-17T08:21:21.029Z,100.00
2023-04-17T08:23:48.998Z,100.00
2023-04-17T08:26:19.006Z,100.00
2023-04-17T08:28:47.047Z,100.00
2023-04-17T08:31:14.937Z,100.00
2023-04-17T08:33:42.790Z,100.00
2023-04-17T08:36:11.920Z,100.00
2023-04-17T08:38:39.872Z,100.00
2023-04-17T08:41:12.943Z,100.00
2023-04-17T08:43:42.277Z,100.00
2023-04-17T08:46:10.406Z,100.00
2023-04-17T08:48:38.243Z,100.00
2023-04-17T08:51:06.186Z,100.00
2023-04-17T08:53:35.336Z,100.00
2023-04-17T08:56:08.328Z,100.00
2023-04-17T08:58:37.839Z,100.00
2023-04-17T09:01:10.733Z,100.00
2023-04-17T09:03:43.174Z,100.00
2023-04-17T09:06:11.771Z,100.00
2023-04-17T09:08:55.177Z,100.00
2023-04-17T09:11:22.948Z,100.00
2023-04-17T09:13:50.865Z,100.00
2023-04-17T09:16:19.999Z,100.00
2023-04-17T09:18:49.414Z,100.00
2023-04-17T09:21:19.686Z,100.00
2023-04-17T09:23:51.165Z,100.00
2023-04-17T09:26:21.105Z,100.00
2023-04-17T09:29:11.084Z,100.00
2023-04-17T09:31:40.850Z,100.00
2023-04-17T09:34:11.930Z,100.00
2023-04-17T09:36:43.216Z,100.00
2023-04-17T09:39:20.840Z,100.00
2023-04-17T09:41:49.128Z,100.00
2023-04-17T09:44:26.942Z,100.00
2023-04-17T09:46:55.535Z,100.00
2023-04-17T09:49:30.318Z,100.00
2023-04-17T09:51:59.197Z,100.00
2023-04-17T09:54:31.337Z,100.00
2023-04-17T09:56:59.531Z,100.00
2023-04-17T09:59:28.776Z,100.00
2023-04-17T10:01:57.183Z,100.00
2023-04-17T10:04:25.291Z,100.00
2023-04-17T10:06:53.518Z,100.00
2023-04-17T10:09:21.278Z,100.00
2023-04-17T10:11:51.236Z,100.00
2023-04-17T10:14:25.566Z,100.00
2023-04-17T10:16:53.797Z,100.00
2023-04-17T10:19:29.554Z,100.00
2023-04-17T10:22:32.325Z,100.00
2023-04-17T10:25:23.441Z,100.00
2023-04-17T10:27:58.294Z,100.00
2023-04-17T10:30:26.832Z,100.00
2023-04-17T10:33:25.029Z,100.00
2023-04-17T10:35:53.504Z,100.00
2023-04-17T10:38:33.507Z,100.00
2023-04-17T10:41:04.238Z,100.00
2023-04-17T10:43:34.051Z,100.00
2023-04-17T10:46:06.869Z,100.00
2023-04-17T10:48:38.095Z,100.00
2023-04-17T10:51:41.093Z,100.00
2023-04-17T10:54:10.767Z,100.00
2023-04-17T10:56:39.813Z,100.00
2023-04-17T10:59:10.065Z,100.00
2023-04-17T11:01:40.612Z,100.00
2023-04-17T11:04:10.593Z,100.00
2023-04-17T11:06:40.510Z,100.00
2023-04-17T11:09:10.519Z,100.00
2023-04-17T11:11:44.273Z,100.00
2023-04-17T11:14:16.502Z,100.00
2023-04-17T11:16:46.137Z,100.00
2023-04-17T11:19:19.485Z,100.00
2023-04-17T11:21:50.137Z,100.00
2023-04-17T11:24:24.039Z,100.00
2023-04-17T11:26:52.010Z,100.00
2023-04-17T11:29:22.884Z,100.00
2023-04-17T11:31:52.356Z,98.29
2023-04-17T11:34:20.894Z,97.66
2023-04-17T11:36:52.207Z,93.04
2023-04-17T11:39:20.211Z,92.51
2023-04-17T11:41:48.287Z,93.93
2023-04-17T11:44:17.978Z,97.96
2023-04-17T11:46:52.202Z,97.55
2023-04-17T11:49:26.555Z,99.20
2023-04-17T11:51:54.499Z,98.62
2023-04-17T11:54:26.143Z,99.31
2023-04-17T11:57:01.943Z,97.24
2023-04-17T11:59:34.477Z,97.53
2023-04-17T12:02:04.297Z,97.53
2023-04-17T12:04:34.132Z,97.85
2023-04-17T12:07:02.713Z,98.25
2023-04-17T12:09:32.191Z,98.29
2023-04-17T12:12:00.184Z,100.00
2023-04-17T12:14:28.266Z,100.00
2023-04-17T12:16:56.030Z,100.00
2023-04-17T12:19:26.872Z,97.00
2023-04-17T12:21:55.696Z,97.71
2023-04-17T12:24:24.959Z,94.78
2023-04-17T12:26:53.676Z,92.80
2023-04-17T12:29:29.471Z,89.94
2023-04-17T12:32:05.780Z,93.20
2023-04-17T12:34:34.944Z,89.82
2023-04-17T12:37:02.690Z,87.32
2023-04-17T12:39:32.777Z,86.64
2023-04-17T12:42:00.662Z,86.50
2023-04-17T12:44:28.410Z,87.83
2023-04-17T12:46:56.299Z,90.77
2023-04-17T12:49:24.442Z,92.82
2023-04-17T12:51:53.621Z,95.24
2023-04-17T12:54:21.390Z,98.33
2023-04-17T12:56:49.504Z,100.00
2023-04-17T12:59:17.346Z,100.00
2023-04-17T13:01:45.154Z,100.00
2023-04-17T13:04:13.746Z,100.00
2023-04-17T13:06:41.906Z,100.00
2023-04-17T13:09:11.490Z,100.00
2023-04-17T13:11:39.538Z,100.00
2023-04-17T13:14:07.447Z,100.00
2023-04-17T13:16:35.416Z,100.00
2023-04-17T13:19:03.263Z,100.00
2023-04-17T13:21:31.000Z,100.00
2023-04-17T13:23:58.803Z,100.00
2023-04-17T13:26:27.969Z,100.00
2023-04-17T13:28:55.701Z,100.00
2023-04-17T13:31:24.583Z,100.00
2023-04-17T13:33:52.550Z,100.00
2023-04-17T13:36:20.357Z,100.00
2023-04-17T13:38:48.109Z,100.00
2023-04-17T13:41:15.932Z,100.00
2023-04-17T13:43:45.247Z,100.00
2023-04-17T13:46:16.062Z,100.00
2023-04-17T13:48:44.054Z,100.00
2023-04-17T13:51:11.849Z,100.00
2023-04-17T13:53:39.628Z,100.00
2023-04-17T13:56:07.744Z,99.53
2023-04-17T13:58:35.736Z,97.69
2023-04-17T14:01:04.894Z,98.06
2023-04-17T14:03:32.781Z,97.15
2023-04-17T14:06:00.653Z,97.40
2023-04-17T14:08:28.440Z,97.88
2023-04-17T14:10:56.246Z,98.32
2023-04-17T14:13:24.088Z,99.18
2023-04-17T14:15:53.738Z,99.58
2023-04-17T14:18:24.767Z,100.00
2023-04-17T14:20:54.018Z,100.00
2023-04-17T14:23:22.111Z,100.00
2023-04-17T14:25:49.949Z,100.00
2023-04-17T14:28:18.446Z,100.00
2023-04-17T14:30:46.410Z,100.00
2023-04-17T14:33:14.238Z,100.00
2023-04-17T14:35:43.364Z,100.00
2023-04-17T14:38:11.217Z,100.00
2023-04-17T14:40:38.960Z,100.00
2023-04-17T14:43:06.987Z,100.00
2023-04-17T14:45:36.721Z,100.00
2023-04-17T14:48:04.665Z,100.00
2023-04-17T14:50:32.510Z,100.00
2023-04-17T14:53:01.834Z,100.00
2023-04-17T14:55:30.073Z,100.00
2023-04-17T14:57:58.002Z,100.00
2023-04-17T15:00:25.829Z,100.00
2023-04-17T15:02:53.716Z,100.00
2023-04-17T15:05:22.526Z,100.00
2023-04-17T15:07:50.501Z,100.00
2023-04-17T15:10:19.594Z,100.00
2023-04-17T15:12:47.526Z,100.00
2023-04-17T15:15:15.426Z,100.00
2023-04-17T15:17:43.481Z,100.00
2023-04-17T15:20:12.043Z,100.00
2023-04-17T15:22:39.872Z,100.00
2023-04-17T15:25:08.239Z,100.00
2023-04-17T15:27:37.406Z,100.00
2023-04-17T15:30:08.852Z,100.00
2023-04-17T15:32:36.679Z,100.00
2023-04-17T15:35:05.341Z,100.00
2023-04-17T15:37:33.239Z,100.00
2023-04-17T15:40:01.040Z,100.00
2023-04-17T15:42:30.376Z,100.00
2023-04-17T15:44:59.533Z,100.00
2023-04-17T15:47:27.409Z,100.00
2023-04-17T15:49:55.535Z,100.00
2023-04-17T15:52:23.423Z,100.00
2023-04-17T15:54:51.221Z,100.00
2023-04-17T15:57:22.174Z,100.00
2023-04-17T15:59:50.064Z,100.00
2023-04-17T16:02:19.293Z,100.00
2023-04-17T16:04:47.125Z,100.00
2023-04-17T16:07:16.469Z,100.00
2023-04-17T16:09:46.594Z,100.00
2023-04-17T16:12:14.758Z,100.00
2023-04-17T16:14:42.566Z,100.00
2023-04-17T16:17:10.310Z,100.00
2023-04-17T16:19:39.508Z,100.00
2023-04-17T16:22:07.358Z,100.00
2023-04-17T16:24:35.121Z,100.00
2023-04-17T16:27:03.096Z,100.00
2023-04-17T16:29:31.068Z,100.00
2023-04-17T16:31:59.655Z,100.00
2023-04-17T16:34:27.630Z,100.00
2023-04-17T16:36:56.775Z,100.00
2023-04-17T16:39:24.797Z,100.00
2023-04-17T16:41:52.809Z,100.00
2023-04-17T16:44:20.845Z,100.00
2023-04-17T16:49:19.351Z,100.00
2023-04-17T16:51:47.190Z,100.00
2023-04-17T16:54:16.426Z,100.00
2023-04-17T16:56:44.223Z,100.00
2023-04-17T16:59:12.339Z,100.00
2023-04-17T17:01:40.242Z,100.00
2023-04-17T17:04:08.281Z,100.00
2023-04-17T17:06:36.159Z,100.00
2023-04-17T17:09:04.024Z,100.00
2023-04-17T17:11:33.278Z,100.00
2023-04-17T17:14:01.107Z,100.00
2023-04-17T17:16:28.917Z,100.00
2023-04-17T17:18:56.720Z,100.00
2023-04-17T17:21:24.603Z,100.00
2023-04-17T17:23:52.357Z,100.00
2023-04-17T17:26:20.142Z,100.00
2023-04-17T17:28:51.336Z,100.00
2023-04-17T17:31:19.344Z,100.00
2023-04-17T17:33:50.031Z,100.00
2023-04-17T17:36:18.427Z,100.00
2023-04-17T17:38:46.261Z,100.00
2023-04-17T17:41:14.176Z,100.00
2023-04-17T17:43:41.947Z,100.00
2023-04-17T17:46:11.114Z,100.00
2023-04-17T17:48:38.889Z,100.00
2023-04-17T17:51:06.950Z,100.00
2023-04-17T17:53:34.814Z,100.00
2023-04-17T17:56:02.643Z,100.00
2023-04-17T17:58:30.448Z,100.00
2023-04-17T18:00:58.298Z,100.00
2023-04-17T18:03:27.628Z,100.00
2023-04-17T18:05:55.574Z,100.00
2023-04-17T18:08:23.335Z,100.00
2023-04-17T18:10:51.113Z,100.00
2023-04-17T18:13:18.913Z,100.00
2023-04-17T18:15:46.742Z,100.00
2023-04-17T18:18:14.681Z,100.00
2023-04-17T18:20:43.860Z,100.00
2023-04-17T18:23:11.651Z,100.00
2023-04-17T18:25:39.766Z,100.00
2023-04-17T18:28:07.689Z,100.00
2023-04-17T18:30:35.550Z,100.00
2023-04-17T18:33:03.484Z,100.00
2023-04-17T18:35:31.354Z,100.00
2023-04-17T18:38:00.477Z,100.00
2023-04-17T18:40:28.256Z,100.00
2023-04-17T18:42:56.089Z,100.00
2023-04-17T18:45:24.440Z,100.00
2023-04-17T18:47:52.325Z,100.00
2023-04-17T18:50:20.404Z,100.00
2023-04-17T18:52:51.106Z,100.00
2023-04-17T18:55:20.684Z,100.00
2023-04-17T18:57:48.504Z,100.00
2023-04-17T19:00:16.729Z,100.00
2023-04-17T19:02:44.547Z,100.00
2023-04-17T19:05:12.486Z,100.00
2023-04-17T19:07:40.286Z,100.00
2023-04-17T19:10:09.030Z,100.00
2023-04-17T19:12:38.188Z,100.00
2023-04-17T19:15:07.066Z,100.00
2023-04-17T19:17:34.835Z,100.00
2023-04-17T19:20:02.753Z,100.00
2023-04-17T19:22:30.538Z,100.00
2023-04-17T19:24:58.275Z,100.00
2023-04-17T19:27:27.111Z,100.00
2023-04-17T19:29:57.848Z,100.00
2023-04-17T19:32:25.767Z,100.00
2023-04-17T19:34:54.396Z,100.00
2023-04-17T19:37:22.150Z,100.00
2023-04-17T19:39:50.193Z,100.00
2023-04-17T19:42:19.309Z,100.00
2023-04-17T19:44:47.367Z,100.00
2023-04-17T19:47:16.636Z,100.00
2023-04-17T19:49:44.843Z,100.00
2023-04-17T19:52:12.672Z,100.00
2023-04-17T19:54:40.664Z,100.00
2023-04-17T19:57:08.548Z,100.00
2023-04-17T19:59:36.278Z,100.00
2023-04-17T20:02:04.162Z,100.00
2023-04-17T20:04:33.414Z,100.00
2023-04-17T20:07:01.224Z,100.00
2023-04-17T20:09:28.958Z,100.00
2023-04-17T20:11:56.743Z,100.00
2023-04-17T20:14:25.724Z,100.00
2023-04-17T20:16:53.605Z,100.00
2023-04-17T20:19:21.540Z,100.00
2023-04-17T20:21:50.756Z,100.00
2023-04-17T20:24:18.578Z,100.00
2023-04-17T20:26:46.422Z,100.00
2023-04-17T20:29:14.536Z,100.00
2023-04-17T20:31:42.562Z,100.00
2023-04-17T20:34:10.441Z,100.00
2023-04-17T20:36:38.259Z,100.00
2023-04-17T20:39:10.928Z,100.00
2023-04-17T20:41:39.584Z,100.00
2023-04-17T20:44:07.688Z,100.00
2023-04-17T20:46:35.495Z,100.00
2023-04-17T20:49:03.403Z,100.00
2023-04-17T20:51:31.910Z,100.00
2023-04-17T20:53:59.666Z,100.00
2023-04-17T20:56:28.903Z,100.00
2023-04-17T20:58:56.673Z,100.00
2023-04-17T21:01:24.476Z,100.00
2023-04-17T21:03:52.780Z,100.00
2023-04-17T21:06:21.125Z,100.00
2023-04-17T21:08:48.919Z,100.00
2023-04-17T21:11:16.695Z,100.00
2023-04-17T21:13:45.801Z,100.00
2023-04-17T21:16:13.717Z,100.00
2023-04-17T21:18:41.591Z,100.00
2023-04-17T21:21:09.393Z,100.00
2023-04-17T21:23:37.203Z,100.00
2023-04-17T21:26:05.190Z,100.00
2023-04-17T21:28:33.103Z,100.00
2023-04-17T21:31:02.222Z,100.00
2023-04-17T21:33:30.044Z,100.00
2023-04-17T21:35:57.808Z,100.00
2023-04-17T21:38:26.517Z,100.00
2023-04-17T21:40:54.341Z,100.00
2023-04-17T21:43:22.118Z,100.00
2023-04-17T21:45:50.154Z,100.00
2023-04-17T21:48:19.478Z,100.00
2023-04-17T21:50:47.241Z,100.00
2023-04-17T21:53:15.040Z,100.00
2023-04-17T21:55:42.884Z,100.00
2023-04-17T21:58:10.678Z,100.00
2023-04-17T22:00:38.464Z,100.00
2023-04-17T22:03:06.327Z,100.00
2023-04-17T22:05:35.478Z,100.00
2023-04-17T22:08:03.330Z,100.00
2023-04-17T22:10:31.208Z,100.00
2023-04-17T22:12:59.200Z,100.00
2023-04-17T22:15:26.951Z,100.00
2023-04-17T22:17:54.956Z,100.00
2023-04-17T22:20:22.734Z,100.00
2023-04-17T22:22:51.848Z,100.00
2023-04-17T22:25:21.305Z,100.00
2023-04-17T22:27:49.065Z,100.00
2023-04-17T22:30:16.857Z,100.00
2023-04-17T22:32:44.769Z,100.00
2023-04-17T22:35:12.616Z,100.00
2023-04-17T22:37:40.380Z,100.00
2023-04-17T22:40:10.979Z,100.00
2023-04-17T22:42:38.743Z,100.00
2023-04-17T22:45:07.294Z,100.00
2023-04-17T22:47:35.201Z,100.00
2023-04-17T22:50:04.152Z,100.00
2023-04-17T22:52:32.031Z,100.00
2023-04-17T22:54:59.869Z,100.00
2023-04-17T22:57:28.981Z,100.00
2023-04-17T22:59:56.854Z,100.00
2023-04-17T23:02:24.761Z,100.00
2023-04-17T23:04:52.604Z,100.00
2023-04-17T23:07:20.439Z,100.00
2023-04-17T23:09:48.402Z,100.00
2023-04-17T23:12:16.155Z,100.00
2023-04-17T23:14:46.034Z,100.00
2023-04-17T23:17:13.873Z,100.00
2023-04-17T23:19:41.657Z,100.00
2023-04-17T23:22:10.801Z,100.00
2023-04-17T23:24:38.621Z,100.00
2023-04-17T23:27:06.364Z,100.00
2023-04-17T23:29:34.104Z,100.00
2023-04-17T23:32:04.505Z,100.00
2023-04-17T23:34:32.312Z,100.00
2023-04-17T23:37:00.054Z,100.00
2023-04-17T23:39:27.841Z,100.00
2023-04-17T23:41:55.681Z,100.00
2023-04-17T23:44:23.427Z,100.00
2023-04-17T23:46:51.422Z,100.00
2023-04-17T23:49:20.630Z,100.00
2023-04-17T23:51:48.372Z,100.00
2023-04-17T23:54:16.202Z,100.00
2023-04-17T23:56:44.452Z,100.00
2023-04-17T23:59:12.380Z,100.00
